Terminal Aerodrome Forecast
Issued by NWS

Home | Current Version | Previous Version | Text Only | Print | Product List | Glossary On
Versions: 1 2 3 4 5 6 7 8 9 10 11 12 13 14 15 16 17 18
000
FTUS46 KPQR 271121
TAFONP
TAF
KONP 271121Z 2712/2812 34004KT 2SM BR BKN003
     FM271700 23005KT 3/4SM BR OVC004
     FM272000 25008KT P6SM FEW005
     FM272200 26008KT P6SM SKC
     FM280200 30005KT 2SM BR SKC
     FM280400 25002KT 1SM BR OVC004=

USA.gov is the U.S. government's official web portal to all federal, state and local government web resources and services.